Time,TemperatureF,DewpointF,PressureIn,WindDirection,WindDirectionDegrees,WindSpeedMPH,WindSpeedGustMPH,Humidity,HourlyPrecipIn,Conditions,Clouds,dailyrainin,SoftwareType,DateUTC
2013-10-09 00:13:00,43.2,41.6,30.25,NNE,22,0.0,-999.0,94,-99.99,,,0.00,Acu-Link.com,2013-10-09 04:13:00,
2013-10-09 00:28:00,43.0,41.4,30.25,NNE,22,0.0,-999.0,94,-99.99,,,0.00,Acu-Link.com,2013-10-09 04:28:00,
2013-10-09 00:43:00,42.8,41.2,30.24,NNE,22,0.0,-999.0,94,-99.99,,,0.00,Acu-Link.com,2013-10-09 04:43:00,
2013-10-09 00:59:00,42.6,41.0,30.24,NNE,22,0.0,-999.0,94,-99.99,,,0.00,Acu-Link.com,2013-10-09 04:59:00,
2013-10-09 01:15:00,42.6,41.0,30.25,NNE,22,0.0,-999.0,94,-99.99,,,0.00,Acu-Link.com,2013-10-09 05:15:00,
2013-10-09 01:30:00,42.6,41.0,30.25,NE,45,0.0,-999.0,94,-99.99,,,0.00,Acu-Link.com,2013-10-09 05:30:00,
2013-10-09 01:46:00,42.3,40.7,30.26,NE,45,0.0,-999.0,94,-99.99,,,0.00,Acu-Link.com,2013-10-09 05:46:00,
2013-10-09 02:02:00,42.1,40.5,30.27,NE,45,0.0,-999.0,94,-99.99,,,0.00,Acu-Link.com,2013-10-09 06:02:00,
2013-10-09 02:17:00,41.9,40.3,30.26,NE,45,0.0,-999.0,94,-99.99,,,0.00,Acu-Link.com,2013-10-09 06:17:00,
2013-10-09 02:35:00,41.7,40.4,30.27,NE,45,0.0,-999.0,95,-99.99,,,0.00,Acu-Link.com,2013-10-09 06:35:00,
2013-10-09 02:50:00,41.7,40.4,30.26,NE,45,0.0,-999.0,95,-99.99,,,0.00,Acu-Link.com,2013-10-09 06:50:00,
2013-10-09 03:05:00,41.2,39.9,30.27,NE,45,0.0,-999.0,95,-99.99,,,0.00,Acu-Link.com,2013-10-09 07:05:00,
2013-10-09 03:21:00,41.2,39.9,30.26,NNE,22,0.0,-999.0,95,-99.99,,,0.00,Acu-Link.com,2013-10-09 07:21:00,
2013-10-09 03:36:00,40.8,39.5,30.27,NNE,22,0.0,-999.0,95,-99.99,,,0.00,Acu-Link.com,2013-10-09 07:36:00,
2013-10-09 03:51:00,40.3,39.0,30.27,NNE,22,0.0,-999.0,95,-99.99,,,0.00,Acu-Link.com,2013-10-09 07:51:00,
2013-10-09 04:06:00,40.5,39.5,30.26,NNE,22,0.0,-999.0,96,-99.99,,,0.00,Acu-Link.com,2013-10-09 08:06:00,
2013-10-09 04:21:00,39.7,38.7,30.26,NNE,22,0.0,-999.0,96,-99.99,,,0.00,Acu-Link.com,2013-10-09 08:21:00,
2013-10-09 04:38:00,39.7,38.9,30.26,NNE,22,0.0,-999.0,97,-99.99,,,0.00,Acu-Link.com,2013-10-09 08:38:00,
2013-10-09 04:53:00,40.1,39.3,30.26,NE,45,0.0,-999.0,97,-99.99,,,0.00,Acu-Link.com,2013-10-09 08:53:00,
2013-10-09 05:08:00,39.4,38.6,30.26,NNE,22,0.0,-999.0,97,-99.99,,,0.00,Acu-Link.com,2013-10-09 09:08:00,
2013-10-09 05:23:00,39.0,38.2,30.27,NE,45,0.0,-999.0,97,-99.99,,,0.00,Acu-Link.com,2013-10-09 09:23:00,
2013-10-09 05:38:00,39.2,38.4,30.28,NNE,22,0.0,-999.0,97,-99.99,,,0.00,Acu-Link.com,2013-10-09 09:38:00,
2013-10-09 05:53:00,39.4,38.9,30.27,NE,45,0.0,-999.0,98,-99.99,,,0.00,Acu-Link.com,2013-10-09 09:53:00,
2013-10-09 06:09:00,39.2,38.7,30.28,NE,45,0.0,-999.0,98,-99.99,,,0.00,Acu-Link.com,2013-10-09 10:09:00,
2013-10-09 06:24:00,39.0,38.5,30.28,NNE,22,0.0,-999.0,98,-99.99,,,0.00,Acu-Link.com,2013-10-09 10:24:00,
2013-10-09 06:39:00,39.2,38.7,30.29,NNE,22,0.0,-999.0,98,-99.99,,,0.00,Acu-Link.com,2013-10-09 10:39:00,
2013-10-09 06:54:00,39.4,39.1,30.30,NNE,22,0.0,-999.0,99,-99.99,,,0.00,Acu-Link.com,2013-10-09 10:54:00,
2013-10-09 07:10:00,38.7,38.4,30.29,NNE,22,0.0,-999.0,99,-99.99,,,0.00,Acu-Link.com,2013-10-09 11:10:00,
2013-10-09 07:25:00,39.4,39.1,30.30,NNE,22,0.0,-999.0,99,-99.99,,,0.00,Acu-Link.com,2013-10-09 11:25:00,
2013-10-09 07:40:00,39.9,39.6,30.30,NE,45,0.0,-999.0,99,-99.99,,,0.00,Acu-Link.com,2013-10-09 11:40:00,
2013-10-09 07:56:00,41.2,40.9,30.32,NNE,22,0.0,-999.0,99,-99.99,,,0.00,Acu-Link.com,2013-10-09 11:56:00,
2013-10-09 08:11:00,45.1,44.3,30.32,NE,45,0.0,-999.0,97,-99.99,,,0.00,Acu-Link.com,2013-10-09 12:11:00,
2013-10-09 08:26:00,47.7,45.5,30.32,NE,45,2.2,-999.0,92,-99.99,,,0.00,Acu-Link.com,2013-10-09 12:26:00,
2013-10-09 08:41:00,46.2,43.7,30.32,NE,45,2.2,-999.0,91,-99.99,,,0.00,Acu-Link.com,2013-10-09 12:41:00,
2013-10-09 08:57:00,47.8,45.0,30.32,NNW,337,1.7,-999.0,90,-99.99,,,0.00,Acu-Link.com,2013-10-09 12:57:00,
2013-10-09 09:12:00,49.8,46.4,30.32,ENE,67,1.7,-999.0,88,-99.99,,,0.00,Acu-Link.com,2013-10-09 13:12:00,
2013-10-09 09:27:00,51.1,46.7,30.33,SE,135,1.1,-999.0,85,-99.99,,,0.00,Acu-Link.com,2013-10-09 13:27:00,
2013-10-09 09:43:00,51.4,47.0,30.33,NW,315,0.0,-999.0,85,-99.99,,,0.00,Acu-Link.com,2013-10-09 13:43:00,
2013-10-09 09:58:00,52.5,47.5,30.32,NNE,22,0.0,-999.0,83,-99.99,,,0.00,Acu-Link.com,2013-10-09 13:58:00,
2013-10-09 10:13:00,53.1,48.4,30.32,ENE,67,2.2,-999.0,84,-99.99,,,0.00,Acu-Link.com,2013-10-09 14:13:00,
2013-10-09 10:29:00,55.6,48.2,30.33,East,90,2.7,-999.0,76,-99.99,,,0.00,Acu-Link.com,2013-10-09 14:29:00,
2013-10-09 10:44:00,56.5,46.8,30.31,ENE,67,1.7,-999.0,70,-99.99,,,0.00,Acu-Link.com,2013-10-09 14:44:00,
2013-10-09 11:00:00,57.4,46.9,30.32,NE,45,2.7,-999.0,68,-99.99,,,0.00,Acu-Link.com,2013-10-09 15:00:00,
2013-10-09 11:15:00,60.3,43.6,30.31,East,90,5.3,-999.0,54,-99.99,,,0.00,Acu-Link.com,2013-10-09 15:15:00,
2013-10-09 11:30:00,61.2,40.8,30.31,South,180,2.7,-999.0,47,-99.99,,,0.00,Acu-Link.com,2013-10-09 15:30:00,
2013-10-09 11:45:00,61.3,39.8,30.31,NE,45,2.7,-999.0,45,-99.99,,,0.00,Acu-Link.com,2013-10-09 15:45:00,
2013-10-09 12:00:00,61.5,40.0,30.29,SSE,157,5.8,-999.0,45,-99.99,,,0.00,Acu-Link.com,2013-10-09 16:00:00,
2013-10-09 12:16:00,61.3,40.3,30.30,ENE,67,5.3,-999.0,46,-99.99,,,0.00,Acu-Link.com,2013-10-09 16:16:00,
2013-10-09 12:31:00,61.9,40.9,30.29,SE,135,5.8,-999.0,46,-99.99,,,0.00,Acu-Link.com,2013-10-09 16:31:00,
2013-10-09 12:46:00,62.6,41.0,30.29,NNE,22,2.2,-999.0,45,-99.99,,,0.00,Acu-Link.com,2013-10-09 16:46:00,
2013-10-09 13:17:00,62.8,40.6,30.26,NNE,22,1.1,-999.0,44,-99.99,,,0.00,Acu-Link.com,2013-10-09 17:17:00,
2013-10-09 13:32:00,64.6,42.2,30.27,South,180,0.0,-999.0,44,-99.99,,,0.00,Acu-Link.com,2013-10-09 17:32:00,
2013-10-09 13:47:00,64.8,41.2,30.24,WSW,247,2.7,-999.0,42,-99.99,,,0.00,Acu-Link.com,2013-10-09 17:47:00,
2013-10-09 14:03:00,64.4,41.4,30.26,WNW,292,0.0,-999.0,43,-99.99,,,0.00,Acu-Link.com,2013-10-09 18:03:00,
2013-10-09 14:18:00,65.7,41.4,30.24,West,270,2.2,-999.0,41,-99.99,,,0.00,Acu-Link.com,2013-10-09 18:18:00,
2013-10-09 14:33:00,65.3,42.8,30.23,SSE,157,0.0,-999.0,44,-99.99,,,0.00,Acu-Link.com,2013-10-09 18:33:00,
2013-10-09 14:49:00,66.2,41.2,30.23,SSE,157,3.2,-999.0,40,-99.99,,,0.00,Acu-Link.com,2013-10-09 18:49:00,
2013-10-09 15:04:00,64.9,41.3,30.23,SSE,157,1.7,-999.0,42,-99.99,,,0.00,Acu-Link.com,2013-10-09 19:04:00,
2013-10-09 15:20:00,66.4,42.0,30.22,NNE,22,2.2,-999.0,41,-99.99,,,0.00,Acu-Link.com,2013-10-09 19:20:00,
2013-10-09 15:36:00,66.2,41.2,30.22,WNW,292,2.7,-999.0,40,-99.99,,,0.00,Acu-Link.com,2013-10-09 19:36:00,
2013-10-09 15:52:00,66.2,42.4,30.22,NE,45,1.7,-999.0,42,-99.99,,,0.00,Acu-Link.com,2013-10-09 19:52:00,
2013-10-09 16:11:00,66.2,41.2,30.22,South,180,2.2,-999.0,40,-99.99,,,0.00,Acu-Link.com,2013-10-09 20:11:00,
2013-10-09 16:26:00,67.1,42.6,30.22,SSE,157,2.7,-999.0,41,-99.99,,,0.00,Acu-Link.com,2013-10-09 20:26:00,
2013-10-09 16:42:00,66.4,42.6,30.20,South,180,1.7,-999.0,42,-99.99,,,0.00,Acu-Link.com,2013-10-09 20:42:00,
2013-10-09 16:57:00,66.6,44.0,30.21,SW,225,0.0,-999.0,44,-99.99,,,0.00,Acu-Link.com,2013-10-09 20:57:00,
2013-10-09 17:13:00,66.0,44.0,30.20,WNW,292,0.0,-999.0,45,-99.99,,,0.00,Acu-Link.com,2013-10-09 21:13:00,
2013-10-09 17:28:00,65.5,44.7,30.20,West,270,0.0,-999.0,47,-99.99,,,0.00,Acu-Link.com,2013-10-09 21:28:00,
2013-10-09 17:44:00,64.2,44.6,30.20,SSW,202,0.0,-999.0,49,-99.99,,,0.00,Acu-Link.com,2013-10-09 21:44:00,
2013-10-09 17:59:00,62.8,45.4,30.20,SSW,202,0.0,-999.0,53,-99.99,,,0.00,Acu-Link.com,2013-10-09 21:59:00,
2013-10-09 18:14:00,61.3,45.9,30.20,SW,225,0.0,-999.0,57,-99.99,,,0.00,Acu-Link.com,2013-10-09 22:14:00,
2013-10-09 18:30:00,59.0,46.4,30.20,South,180,0.0,-999.0,63,-99.99,,,0.00,Acu-Link.com,2013-10-09 22:30:00,
2013-10-09 18:45:00,57.7,47.6,30.20,South,180,0.0,-999.0,69,-99.99,,,0.00,Acu-Link.com,2013-10-09 22:45:00,
2013-10-09 19:01:00,56.3,48.1,30.20,WSW,247,2.2,-999.0,74,-99.99,,,0.00,Acu-Link.com,2013-10-09 23:01:00,
2013-10-09 19:16:00,55.4,47.6,30.20,South,180,0.0,-999.0,75,-99.99,,,0.00,Acu-Link.com,2013-10-09 23:16:00,
2013-10-09 19:32:00,54.7,48.0,30.20,South,180,0.0,-999.0,78,-99.99,,,0.00,Acu-Link.com,2013-10-09 23:32:00,
2013-10-09 19:47:00,53.6,47.6,30.20,East,90,0.0,-999.0,80,-99.99,,,0.00,Acu-Link.com,2013-10-09 23:47:00,
2013-10-09 20:02:00,52.7,48.0,30.20,East,90,0.0,-999.0,84,-99.99,,,0.00,Acu-Link.com,2013-10-10 00:02:00,
2013-10-09 20:18:00,52.7,47.0,30.21,East,90,0.0,-999.0,81,-99.99,,,0.00,Acu-Link.com,2013-10-10 00:18:00,
2013-10-09 20:33:00,52.2,47.2,30.21,East,90,0.0,-999.0,83,-99.99,,,0.00,Acu-Link.com,2013-10-10 00:33:00,
2013-10-09 20:48:00,51.4,47.0,30.21,East,90,0.0,-999.0,85,-99.99,,,0.00,Acu-Link.com,2013-10-10 00:48:00,
2013-10-09 21:04:00,50.9,47.2,30.21,ENE,67,0.0,-999.0,87,-99.99,,,0.00,Acu-Link.com,2013-10-10 01:04:00,
2013-10-09 21:19:00,50.5,46.8,30.22,East,90,0.0,-999.0,87,-99.99,,,0.00,Acu-Link.com,2013-10-10 01:19:00,
2013-10-09 21:35:00,49.8,46.4,30.21,East,90,0.0,-999.0,88,-99.99,,,0.00,Acu-Link.com,2013-10-10 01:35:00,
2013-10-09 21:50:00,48.7,45.6,30.21,ENE,67,0.0,-999.0,89,-99.99,,,0.00,Acu-Link.com,2013-10-10 01:50:00,
2013-10-09 22:05:00,47.8,45.0,30.21,East,90,0.0,-999.0,90,-99.99,,,0.00,Acu-Link.com,2013-10-10 02:05:00,
2013-10-09 22:20:00,47.1,44.6,30.22,ENE,67,0.0,-999.0,91,-99.99,,,0.00,Acu-Link.com,2013-10-10 02:20:00,
2013-10-09 22:35:00,46.6,44.1,30.23,ENE,67,0.0,-999.0,91,-99.99,,,0.00,Acu-Link.com,2013-10-10 02:35:00,
2013-10-09 22:51:00,46.2,44.0,30.22,ENE,67,0.0,-999.0,92,-99.99,,,0.00,Acu-Link.com,2013-10-10 02:51:00,
2013-10-09 23:06:00,45.9,43.7,30.21,ENE,67,0.0,-999.0,92,-99.99,,,0.00,Acu-Link.com,2013-10-10 03:06:00,
2013-10-09 23:22:00,45.7,43.5,30.21,ENE,67,0.0,-999.0,92,-99.99,,,0.00,Acu-Link.com,2013-10-10 03:22:00,
2013-10-09 23:38:00,45.5,43.3,30.21,ENE,67,0.0,-999.0,92,-99.99,,,0.00,Acu-Link.com,2013-10-10 03:38:00,
2013-10-09 23:53:00,45.5,43.3,30.22,East,90,0.0,-999.0,92,-99.99,,,0.00,Acu-Link.com,2013-10-10 03:53:00,